sensor_id;sensor_type;location;lat;lon;timestamp;P1;durP1;ratioP1;P2;durP2;ratioP2
69392;SDS011;56582;44.624;20.378;2022-10-14T00:01:20;12.33;;;8.47;;
69392;SDS011;56582;44.624;20.378;2022-10-14T00:03:47;12.88;;;9.25;;
69392;SDS011;56582;44.624;20.378;2022-10-14T00:06:16;16.13;;;10.73;;
69392;SDS011;56582;44.624;20.378;2022-10-14T00:08:44;16.92;;;9.85;;
69392;SDS011;56582;44.624;20.378;2022-10-14T00:11:12;14.48;;;9.93;;
69392;SDS011;56582;44.624;20.378;2022-10-14T00:13:43;15.23;;;10.35;;
69392;SDS011;56582;44.624;20.378;2022-10-14T00:16:43;14.83;;;8.53;;
69392;SDS011;56582;44.624;20.378;2022-10-14T00:19:01;16.80;;;10.57;;
69392;SDS011;56582;44.624;20.378;2022-10-14T00:21:27;15.35;;;9.30;;
69392;SDS011;56582;44.624;20.378;2022-10-14T00:23:53;15.20;;;9.82;;
69392;SDS011;56582;44.624;20.378;2022-10-14T00:26:21;17.03;;;10.93;;
69392;SDS011;56582;44.624;20.378;2022-10-14T00:28:58;18.30;;;10.05;;
69392;SDS011;56582;44.624;20.378;2022-10-14T00:31:24;14.95;;;9.57;;
69392;SDS011;56582;44.624;20.378;2022-10-14T00:33:50;18.10;;;11.55;;
69392;SDS011;56582;44.624;20.378;2022-10-14T00:36:16;15.37;;;7.27;;
69392;SDS011;56582;44.624;20.378;2022-10-14T00:38:43;16.25;;;11.15;;
69392;SDS011;56582;44.624;20.378;2022-10-14T00:41:13;18.42;;;11.25;;
69392;SDS011;56582;44.624;20.378;2022-10-14T00:44:03;19.80;;;11.57;;
69392;SDS011;56582;44.624;20.378;2022-10-14T00:46:45;16.57;;;8.43;;
69392;SDS011;56582;44.624;20.378;2022-10-14T00:52:02;14.98;;;9.73;;
69392;SDS011;56582;44.624;20.378;2022-10-14T00:54:34;17.50;;;10.57;;
69392;SDS011;56582;44.624;20.378;2022-10-14T00:57:03;18.13;;;11.85;;
69392;SDS011;56582;44.624;20.378;2022-10-14T00:59:30;21.87;;;9.63;;
69392;SDS011;56582;44.624;20.378;2022-10-14T01:01:57;16.63;;;10.60;;
69392;SDS011;56582;44.624;20.378;2022-10-14T01:04:23;15.07;;;8.27;;
69392;SDS011;56582;44.624;20.378;2022-10-14T01:09:48;15.25;;;8.82;;
69392;SDS011;56582;44.624;20.378;2022-10-14T01:12:40;16.63;;;10.48;;
69392;SDS011;56582;44.624;20.378;2022-10-14T01:15:37;15.05;;;10.63;;
69392;SDS011;56582;44.624;20.378;2022-10-14T01:32:26;17.37;;;10.87;;
69392;SDS011;56582;44.624;20.378;2022-10-14T01:35:12;17.08;;;10.50;;
69392;SDS011;56582;44.624;20.378;2022-10-14T01:37:54;12.73;;;8.38;;
69392;SDS011;56582;44.624;20.378;2022-10-14T01:43:10;18.33;;;10.10;;
69392;SDS011;56582;44.624;20.378;2022-10-14T01:45:37;14.23;;;8.17;;
69392;SDS011;56582;44.624;20.378;2022-10-14T01:48:06;17.10;;;7.18;;
69392;SDS011;56582;44.624;20.378;2022-10-14T01:50:34;14.88;;;9.52;;
69392;SDS011;56582;44.624;20.378;2022-10-14T01:53:03;15.63;;;9.85;;
69392;SDS011;56582;44.624;20.378;2022-10-14T01:55:34;14.05;;;7.38;;
69392;SDS011;56582;44.624;20.378;2022-10-14T01:58:02;13.53;;;8.80;;
69392;SDS011;56582;44.624;20.378;2022-10-14T02:00:29;18.15;;;8.27;;
69392;SDS011;56582;44.624;20.378;2022-10-14T02:02:55;12.10;;;7.73;;
69392;SDS011;56582;44.624;20.378;2022-10-14T02:05:40;13.00;;;8.20;;
69392;SDS011;56582;44.624;20.378;2022-10-14T02:08:25;17.17;;;10.82;;
69392;SDS011;56582;44.624;20.378;2022-10-14T02:11:03;15.30;;;7.77;;
69392;SDS011;56582;44.624;20.378;2022-10-14T02:13:37;13.68;;;8.25;;
69392;SDS011;56582;44.624;20.378;2022-10-14T02:19:37;16.15;;;7.82;;
69392;SDS011;56582;44.624;20.378;2022-10-14T02:22:19;53.10;;;11.45;;
69392;SDS011;56582;44.624;20.378;2022-10-14T02:24:54;43.80;;;10.70;;
69392;SDS011;56582;44.624;20.378;2022-10-14T02:27:25;16.75;;;8.73;;
69392;SDS011;56582;44.624;20.378;2022-10-14T02:29:53;13.45;;;9.88;;
69392;SDS011;56582;44.624;20.378;2022-10-14T02:32:20;14.60;;;7.20;;
69392;SDS011;56582;44.624;20.378;2022-10-14T02:34:49;16.10;;;10.30;;
69392;SDS011;56582;44.624;20.378;2022-10-14T02:37:17;18.57;;;9.60;;
69392;SDS011;56582;44.624;20.378;2022-10-14T02:39:53;14.57;;;8.43;;
69392;SDS011;56582;44.624;20.378;2022-10-14T02:42:23;17.88;;;8.15;;
69392;SDS011;56582;44.624;20.378;2022-10-14T02:44:56;17.70;;;7.68;;
69392;SDS011;56582;44.624;20.378;2022-10-14T02:47:23;16.67;;;9.27;;
69392;SDS011;56582;44.624;20.378;2022-10-14T02:49:49;16.90;;;9.68;;
69392;SDS011;56582;44.624;20.378;2022-10-14T02:52:15;15.90;;;11.15;;
69392;SDS011;56582;44.624;20.378;2022-10-14T02:54:40;15.97;;;10.17;;
69392;SDS011;56582;44.624;20.378;2022-10-14T02:57:05;15.13;;;8.40;;
69392;SDS011;56582;44.624;20.378;2022-10-14T02:59:31;11.83;;;8.70;;
69392;SDS011;56582;44.624;20.378;2022-10-14T03:01:56;13.85;;;8.60;;
69392;SDS011;56582;44.624;20.378;2022-10-14T03:04:22;11.80;;;7.33;;
69392;SDS011;56582;44.624;20.378;2022-10-14T03:06:47;14.87;;;8.37;;
69392;SDS011;56582;44.624;20.378;2022-10-14T03:09:13;13.88;;;8.52;;
69392;SDS011;56582;44.624;20.378;2022-10-14T03:11:38;18.07;;;8.37;;
69392;SDS011;56582;44.624;20.378;2022-10-14T03:14:04;13.07;;;7.53;;
69392;SDS011;56582;44.624;20.378;2022-10-14T03:16:29;16.33;;;10.00;;
69392;SDS011;56582;44.624;20.378;2022-10-14T03:18:54;15.77;;;8.50;;
69392;SDS011;56582;44.624;20.378;2022-10-14T03:21:20;12.88;;;9.32;;
69392;SDS011;56582;44.624;20.378;2022-10-14T03:23:45;12.87;;;7.30;;
69392;SDS011;56582;44.624;20.378;2022-10-14T03:26:11;13.93;;;7.07;;
69392;SDS011;56582;44.624;20.378;2022-10-14T03:28:36;14.80;;;9.43;;
69392;SDS011;56582;44.624;20.378;2022-10-14T03:31:01;17.83;;;10.00;;
69392;SDS011;56582;44.624;20.378;2022-10-14T03:33:27;18.10;;;9.67;;
69392;SDS011;56582;44.624;20.378;2022-10-14T03:35:52;21.73;;;9.80;;
69392;SDS011;56582;44.624;20.378;2022-10-14T03:38:18;16.97;;;10.10;;
69392;SDS011;56582;44.624;20.378;2022-10-14T03:40:43;13.93;;;9.43;;
69392;SDS011;56582;44.624;20.378;2022-10-14T03:43:09;16.20;;;9.00;;
69392;SDS011;56582;44.624;20.378;2022-10-14T03:45:34;14.20;;;9.07;;
69392;SDS011;56582;44.624;20.378;2022-10-14T03:47:59;19.23;;;8.73;;
69392;SDS011;56582;44.624;20.378;2022-10-14T03:50:25;17.50;;;9.13;;
69392;SDS011;56582;44.624;20.378;2022-10-14T03:52:50;16.20;;;8.77;;
69392;SDS011;56582;44.624;20.378;2022-10-14T03:55:16;12.27;;;7.90;;
69392;SDS011;56582;44.624;20.378;2022-10-14T03:57:41;12.50;;;7.82;;
69392;SDS011;56582;44.624;20.378;2022-10-14T04:00:07;13.27;;;6.90;;
69392;SDS011;56582;44.624;20.378;2022-10-14T04:02:33;12.63;;;8.75;;
69392;SDS011;56582;44.624;20.378;2022-10-14T04:04:59;14.43;;;6.37;;
69392;SDS011;56582;44.624;20.378;2022-10-14T04:07:25;15.05;;;8.48;;
69392;SDS011;56582;44.624;20.378;2022-10-14T04:09:51;18.02;;;8.55;;
69392;SDS011;56582;44.624;20.378;2022-10-14T04:12:16;13.33;;;7.37;;
69392;SDS011;56582;44.624;20.378;2022-10-14T04:14:42;17.13;;;8.73;;
69392;SDS011;56582;44.624;20.378;2022-10-14T04:17:07;13.27;;;8.27;;
69392;SDS011;56582;44.624;20.378;2022-10-14T04:19:32;14.45;;;9.13;;
69392;SDS011;56582;44.624;20.378;2022-10-14T04:21:58;16.00;;;8.43;;
69392;SDS011;56582;44.624;20.378;2022-10-14T04:24:23;14.33;;;7.13;;
69392;SDS011;56582;44.624;20.378;2022-10-14T04:26:49;17.63;;;9.23;;
69392;SDS011;56582;44.624;20.378;2022-10-14T04:29:16;18.85;;;9.13;;
69392;SDS011;56582;44.624;20.378;2022-10-14T04:31:42;17.67;;;7.53;;
69392;SDS011;56582;44.624;20.378;2022-10-14T04:34:08;13.43;;;8.00;;
69392;SDS011;56582;44.624;20.378;2022-10-14T04:36:34;14.18;;;7.95;;
69392;SDS011;56582;44.624;20.378;2022-10-14T04:39:00;15.57;;;9.70;;
69392;SDS011;56582;44.624;20.378;2022-10-14T04:41:26;14.93;;;8.60;;
69392;SDS011;56582;44.624;20.378;2022-10-14T04:43:51;13.77;;;8.80;;
69392;SDS011;56582;44.624;20.378;2022-10-14T04:46:16;17.85;;;9.50;;
69392;SDS011;56582;44.624;20.378;2022-10-14T04:48:42;13.77;;;9.53;;
69392;SDS011;56582;44.624;20.378;2022-10-14T04:51:07;15.17;;;9.40;;
69392;SDS011;56582;44.624;20.378;2022-10-14T04:53:33;16.30;;;9.33;;
69392;SDS011;56582;44.624;20.378;2022-10-14T04:55:58;13.38;;;8.55;;
69392;SDS011;56582;44.624;20.378;2022-10-14T04:58:24;14.33;;;8.67;;
69392;SDS011;56582;44.624;20.378;2022-10-14T05:00:52;14.90;;;9.03;;
69392;SDS011;56582;44.624;20.378;2022-10-14T05:03:18;14.10;;;8.90;;
69392;SDS011;56582;44.624;20.378;2022-10-14T05:05:43;19.33;;;8.87;;
69392;SDS011;56582;44.624;20.378;2022-10-14T05:08:09;18.40;;;9.73;;
69392;SDS011;56582;44.624;20.378;2022-10-14T05:10:34;15.38;;;9.07;;
69392;SDS011;56582;44.624;20.378;2022-10-14T05:13:00;15.30;;;7.90;;
69392;SDS011;56582;44.624;20.378;2022-10-14T05:15:26;13.23;;;8.32;;
69392;SDS011;56582;44.624;20.378;2022-10-14T05:17:51;17.17;;;9.40;;
69392;SDS011;56582;44.624;20.378;2022-10-14T05:20:17;14.07;;;7.90;;
69392;SDS011;56582;44.624;20.378;2022-10-14T05:22:42;15.27;;;8.70;;
69392;SDS011;56582;44.624;20.378;2022-10-14T05:25:09;15.93;;;8.87;;
69392;SDS011;56582;44.624;20.378;2022-10-14T05:27:35;18.00;;;9.60;;
69392;SDS011;56582;44.624;20.378;2022-10-14T05:30:00;14.57;;;8.23;;
69392;SDS011;56582;44.624;20.378;2022-10-14T05:32:26;13.55;;;8.27;;
69392;SDS011;56582;44.624;20.378;2022-10-14T05:34:52;14.57;;;8.95;;
69392;SDS011;56582;44.624;20.378;2022-10-14T05:37:18;12.80;;;7.73;;
69392;SDS011;56582;44.624;20.378;2022-10-14T05:39:43;12.37;;;9.07;;
69392;SDS011;56582;44.624;20.378;2022-10-14T05:42:08;15.57;;;8.93;;
69392;SDS011;56582;44.624;20.378;2022-10-14T05:44:34;21.03;;;10.13;;
69392;SDS011;56582;44.624;20.378;2022-10-14T05:47:00;11.47;;;8.50;;
69392;SDS011;56582;44.624;20.378;2022-10-14T05:49:25;16.43;;;8.77;;
69392;SDS011;56582;44.624;20.378;2022-10-14T05:51:50;12.68;;;8.13;;
69392;SDS011;56582;44.624;20.378;2022-10-14T05:54:16;15.50;;;9.70;;
69392;SDS011;56582;44.624;20.378;2022-10-14T06:07:25;14.57;;;9.50;;
69392;SDS011;56582;44.624;20.378;2022-10-14T06:09:51;15.87;;;9.00;;
69392;SDS011;56582;44.624;20.378;2022-10-14T06:12:16;12.57;;;9.23;;
69392;SDS011;56582;44.624;20.378;2022-10-14T06:14:42;16.05;;;9.18;;
69392;SDS011;56582;44.624;20.378;2022-10-14T06:17:07;18.20;;;9.47;;
69392;SDS011;56582;44.624;20.378;2022-10-14T06:19:32;14.47;;;8.67;;
69392;SDS011;56582;44.624;20.378;2022-10-14T06:21:58;13.50;;;9.43;;
69392;SDS011;56582;44.624;20.378;2022-10-14T06:24:24;14.40;;;8.82;;
69392;SDS011;56582;44.624;20.378;2022-10-14T06:26:49;14.93;;;9.63;;
69392;SDS011;56582;44.624;20.378;2022-10-14T06:29:15;15.33;;;8.97;;
69392;SDS011;56582;44.624;20.378;2022-10-14T06:31:41;14.60;;;8.90;;
69392;SDS011;56582;44.624;20.378;2022-10-14T06:34:07;14.00;;;9.00;;
69392;SDS011;56582;44.624;20.378;2022-10-14T06:36:33;13.73;;;9.33;;
69392;SDS011;56582;44.624;20.378;2022-10-14T06:38:59;12.80;;;8.98;;
69392;SDS011;56582;44.624;20.378;2022-10-14T06:41:24;13.50;;;7.93;;
69392;SDS011;56582;44.624;20.378;2022-10-14T06:43:50;13.75;;;8.20;;
69392;SDS011;56582;44.624;20.378;2022-10-14T06:46:16;12.85;;;8.70;;
69392;SDS011;56582;44.624;20.378;2022-10-14T06:48:42;13.33;;;8.43;;
69392;SDS011;56582;44.624;20.378;2022-10-14T06:51:07;15.10;;;7.87;;
69392;SDS011;56582;44.624;20.378;2022-10-14T06:53:33;14.23;;;9.63;;
69392;SDS011;56582;44.624;20.378;2022-10-14T06:56:03;13.50;;;8.68;;
69392;SDS011;56582;44.624;20.378;2022-10-14T06:58:30;12.60;;;8.43;;
69392;SDS011;56582;44.624;20.378;2022-10-14T07:01:00;15.07;;;8.38;;
69392;SDS011;56582;44.624;20.378;2022-10-14T07:03:27;13.18;;;8.68;;
69392;SDS011;56582;44.624;20.378;2022-10-14T07:05:52;12.33;;;7.90;;
69392;SDS011;56582;44.624;20.378;2022-10-14T07:08:18;13.40;;;8.63;;
69392;SDS011;56582;44.624;20.378;2022-10-14T07:10:45;17.43;;;8.80;;
69392;SDS011;56582;44.624;20.378;2022-10-14T07:13:11;12.00;;;7.95;;
69392;SDS011;56582;44.624;20.378;2022-10-14T07:15:37;15.83;;;8.47;;
69392;SDS011;56582;44.624;20.378;2022-10-14T07:18:03;14.93;;;9.43;;
69392;SDS011;56582;44.624;20.378;2022-10-14T07:20:29;14.45;;;7.70;;
69392;SDS011;56582;44.624;20.378;2022-10-14T07:22:54;11.50;;;8.07;;
69392;SDS011;56582;44.624;20.378;2022-10-14T07:25:20;15.48;;;8.30;;
69392;SDS011;56582;44.624;20.378;2022-10-14T07:27:46;14.23;;;9.20;;
69392;SDS011;56582;44.624;20.378;2022-10-14T07:30:11;13.17;;;7.00;;
69392;SDS011;56582;44.624;20.378;2022-10-14T07:32:37;18.75;;;8.65;;
69392;SDS011;56582;44.624;20.378;2022-10-14T07:35:03;12.70;;;7.60;;
69392;SDS011;56582;44.624;20.378;2022-10-14T07:37:28;13.38;;;8.57;;
69392;SDS011;56582;44.624;20.378;2022-10-14T07:39:54;16.40;;;7.10;;
69392;SDS011;56582;44.624;20.378;2022-10-14T07:42:19;12.77;;;7.57;;
69392;SDS011;56582;44.624;20.378;2022-10-14T07:44:45;15.98;;;8.63;;
69392;SDS011;56582;44.624;20.378;2022-10-14T07:47:10;10.33;;;7.10;;
69392;SDS011;56582;44.624;20.378;2022-10-14T07:49:37;12.50;;;7.80;;
69392;SDS011;56582;44.624;20.378;2022-10-14T07:52:03;12.98;;;8.43;;
69392;SDS011;56582;44.624;20.378;2022-10-14T07:54:28;14.13;;;7.97;;
69392;SDS011;56582;44.624;20.378;2022-10-14T07:56:56;11.63;;;7.38;;
69392;SDS011;56582;44.624;20.378;2022-10-14T07:59:22;10.52;;;6.72;;
69392;SDS011;56582;44.624;20.378;2022-10-14T08:01:48;12.17;;;7.17;;
69392;SDS011;56582;44.624;20.378;2022-10-14T08:04:15;11.10;;;7.68;;
69392;SDS011;56582;44.624;20.378;2022-10-14T08:06:41;12.80;;;7.73;;
69392;SDS011;56582;44.624;20.378;2022-10-14T08:09:08;14.57;;;8.35;;
69392;SDS011;56582;44.624;20.378;2022-10-14T08:11:35;11.55;;;7.90;;
69392;SDS011;56582;44.624;20.378;2022-10-14T08:14:01;14.63;;;7.65;;
69392;SDS011;56582;44.624;20.378;2022-10-14T08:16:28;13.18;;;7.72;;
69392;SDS011;56582;44.624;20.378;2022-10-14T08:18:56;15.63;;;8.23;;
69392;SDS011;56582;44.624;20.378;2022-10-14T08:21:23;13.98;;;8.00;;
69392;SDS011;56582;44.624;20.378;2022-10-14T08:23:49;12.43;;;7.00;;
69392;SDS011;56582;44.624;20.378;2022-10-14T08:28:45;11.95;;;7.10;;
69392;SDS011;56582;44.624;20.378;2022-10-14T08:31:11;9.50;;;7.18;;
69392;SDS011;56582;44.624;20.378;2022-10-14T08:33:36;11.07;;;6.57;;
69392;SDS011;56582;44.624;20.378;2022-10-14T08:36:02;13.07;;;7.77;;
69392;SDS011;56582;44.624;20.378;2022-10-14T08:38:27;10.50;;;6.97;;
69392;SDS011;56582;44.624;20.378;2022-10-14T08:43:39;11.00;;;7.40;;
69392;SDS011;56582;44.624;20.378;2022-10-14T08:46:22;11.32;;;7.47;;
69392;SDS011;56582;44.624;20.378;2022-10-14T08:48:58;9.87;;;6.40;;
69392;SDS011;56582;44.624;20.378;2022-10-14T08:51:29;13.70;;;6.65;;
69392;SDS011;56582;44.624;20.378;2022-10-14T08:53:58;9.13;;;6.43;;
69392;SDS011;56582;44.624;20.378;2022-10-14T08:56:30;12.93;;;7.57;;
69392;SDS011;56582;44.624;20.378;2022-10-14T08:58:59;11.38;;;7.78;;
69392;SDS011;56582;44.624;20.378;2022-10-14T09:01:37;11.53;;;6.93;;
69392;SDS011;56582;44.624;20.378;2022-10-14T09:04:14;9.82;;;6.32;;
69392;SDS011;56582;44.624;20.378;2022-10-14T09:06:42;11.10;;;7.03;;
69392;SDS011;56582;44.624;20.378;2022-10-14T09:11:42;10.48;;;6.82;;
69392;SDS011;56582;44.624;20.378;2022-10-14T09:14:15;11.40;;;7.10;;
69392;SDS011;56582;44.624;20.378;2022-10-14T09:16:42;9.40;;;6.85;;
69392;SDS011;56582;44.624;20.378;2022-10-14T09:19:22;10.80;;;6.55;;
69392;SDS011;56582;44.624;20.378;2022-10-14T09:21:54;11.18;;;6.75;;
69392;SDS011;56582;44.624;20.378;2022-10-14T09:24:22;9.23;;;6.77;;
69392;SDS011;56582;44.624;20.378;2022-10-14T09:26:51;9.57;;;6.85;;
69392;SDS011;56582;44.624;20.378;2022-10-14T09:29:25;9.85;;;6.90;;
69392;SDS011;56582;44.624;20.378;2022-10-14T09:31:54;12.45;;;6.97;;
69392;SDS011;56582;44.624;20.378;2022-10-14T09:34:27;9.33;;;6.40;;
69392;SDS011;56582;44.624;20.378;2022-10-14T09:36:56;9.95;;;6.13;;
69392;SDS011;56582;44.624;20.378;2022-10-14T09:39:24;19.75;;;6.03;;
69392;SDS011;56582;44.624;20.378;2022-10-14T09:41:52;10.65;;;5.63;;
69392;SDS011;56582;44.624;20.378;2022-10-14T09:44:23;9.70;;;5.75;;
69392;SDS011;56582;44.624;20.378;2022-10-14T09:47:01;10.37;;;5.93;;
69392;SDS011;56582;44.624;20.378;2022-10-14T09:49:32;9.23;;;5.97;;
69392;SDS011;56582;44.624;20.378;2022-10-14T09:52:04;9.32;;;5.20;;
69392;SDS011;56582;44.624;20.378;2022-10-14T09:54:30;10.23;;;5.93;;
69392;SDS011;56582;44.624;20.378;2022-10-14T09:57:02;9.73;;;5.57;;
69392;SDS011;56582;44.624;20.378;2022-10-14T09:59:31;11.20;;;5.90;;
69392;SDS011;56582;44.624;20.378;2022-10-14T10:02:00;15.60;;;6.63;;
69392;SDS011;56582;44.624;20.378;2022-10-14T10:06:56;8.07;;;6.13;;
69392;SDS011;56582;44.624;20.378;2022-10-14T10:09:23;9.88;;;6.60;;
69392;SDS011;56582;44.624;20.378;2022-10-14T10:11:49;10.60;;;5.43;;
69392;SDS011;56582;44.624;20.378;2022-10-14T10:17:12;9.40;;;5.78;;
69392;SDS011;56582;44.624;20.378;2022-10-14T10:19:41;10.20;;;6.07;;
69392;SDS011;56582;44.624;20.378;2022-10-14T10:24:43;10.93;;;6.30;;
69392;SDS011;56582;44.624;20.378;2022-10-14T10:27:18;9.88;;;6.28;;
69392;SDS011;56582;44.624;20.378;2022-10-14T10:29:43;11.55;;;5.35;;
69392;SDS011;56582;44.624;20.378;2022-10-14T10:35:01;11.77;;;6.60;;
69392;SDS011;56582;44.624;20.378;2022-10-14T10:51:30;10.70;;;6.95;;
69392;SDS011;56582;44.624;20.378;2022-10-14T10:54:23;8.47;;;5.73;;
69392;SDS011;56582;44.624;20.378;2022-10-14T11:00:12;10.30;;;6.78;;
69392;SDS011;56582;44.624;20.378;2022-10-14T11:05:41;13.55;;;7.03;;
69392;SDS011;56582;44.624;20.378;2022-10-14T11:19:35;11.05;;;6.75;;
69392;SDS011;56582;44.624;20.378;2022-10-14T11:24:50;9.00;;;6.32;;
69392;SDS011;56582;44.624;20.378;2022-10-14T11:27:37;10.02;;;7.28;;
69392;SDS011;56582;44.624;20.378;2022-10-14T11:30:21;10.25;;;7.40;;
69392;SDS011;56582;44.624;20.378;2022-10-14T11:46:52;10.80;;;6.10;;
69392;SDS011;56582;44.624;20.378;2022-10-14T11:49:29;9.63;;;6.40;;
69392;SDS011;56582;44.624;20.378;2022-10-14T11:54:54;11.18;;;7.53;;
69392;SDS011;56582;44.624;20.378;2022-10-14T11:58:05;12.13;;;7.10;;
69392;SDS011;56582;44.624;20.378;2022-10-14T12:00:30;10.50;;;7.32;;
69392;SDS011;56582;44.624;20.378;2022-10-14T12:06:10;9.25;;;6.70;;
69392;SDS011;56582;44.624;20.378;2022-10-14T12:08:44;14.75;;;7.03;;
69392;SDS011;56582;44.624;20.378;2022-10-14T12:13:58;10.10;;;6.85;;
69392;SDS011;56582;44.624;20.378;2022-10-14T12:16:28;9.90;;;5.60;;
69392;SDS011;56582;44.624;20.378;2022-10-14T12:18:55;9.23;;;5.75;;
69392;SDS011;56582;44.624;20.378;2022-10-14T12:21:43;10.13;;;6.30;;
69392;SDS011;56582;44.624;20.378;2022-10-14T12:24:13;9.25;;;6.28;;
69392;SDS011;56582;44.624;20.378;2022-10-14T12:26:59;10.00;;;6.50;;
69392;SDS011;56582;44.624;20.378;2022-10-14T12:29:34;9.47;;;5.53;;
69392;SDS011;56582;44.624;20.378;2022-10-14T12:34:29;10.63;;;7.40;;
69392;SDS011;56582;44.624;20.378;2022-10-14T12:36:58;10.55;;;7.47;;
69392;SDS011;56582;44.624;20.378;2022-10-14T12:39:31;9.20;;;6.85;;
69392;SDS011;56582;44.624;20.378;2022-10-14T12:42:19;10.32;;;6.57;;
69392;SDS011;56582;44.624;20.378;2022-10-14T12:50:03;9.82;;;6.57;;
69392;SDS011;56582;44.624;20.378;2022-10-14T12:52:56;17.88;;;7.80;;
69392;SDS011;56582;44.624;20.378;2022-10-14T12:55:25;13.65;;;7.53;;
69392;SDS011;56582;44.624;20.378;2022-10-14T12:57:53;9.37;;;6.70;;
69392;SDS011;56582;44.624;20.378;2022-10-14T13:00:28;11.25;;;7.38;;
69392;SDS011;56582;44.624;20.378;2022-10-14T13:02:58;10.23;;;6.95;;
69392;SDS011;56582;44.624;20.378;2022-10-14T13:16:03;9.38;;;6.97;;
69392;SDS011;56582;44.624;20.378;2022-10-14T13:21:28;11.90;;;7.55;;
69392;SDS011;56582;44.624;20.378;2022-10-14T13:32:05;12.23;;;7.65;;
69392;SDS011;56582;44.624;20.378;2022-10-14T13:37:37;13.55;;;8.07;;
69392;SDS011;56582;44.624;20.378;2022-10-14T13:42:56;13.77;;;8.30;;
69392;SDS011;56582;44.624;20.378;2022-10-14T13:45:29;12.45;;;8.15;;
69392;SDS011;56582;44.624;20.378;2022-10-14T13:47:58;16.05;;;8.65;;
69392;SDS011;56582;44.624;20.378;2022-10-14T13:50:25;16.95;;;8.63;;
69392;SDS011;56582;44.624;20.378;2022-10-14T13:52:58;11.93;;;8.50;;
69392;SDS011;56582;44.624;20.378;2022-10-14T13:55:27;11.10;;;7.97;;
69392;SDS011;56582;44.624;20.378;2022-10-14T13:58:10;12.95;;;8.60;;
69392;SDS011;56582;44.624;20.378;2022-10-14T14:00:48;12.85;;;8.48;;
69392;SDS011;56582;44.624;20.378;2022-10-14T14:05:44;12.52;;;8.45;;
69392;SDS011;56582;44.624;20.378;2022-10-14T14:08:13;13.00;;;8.57;;
69392;SDS011;56582;44.624;20.378;2022-10-14T14:10:49;14.18;;;8.15;;
69392;SDS011;56582;44.624;20.378;2022-10-14T14:13:16;15.77;;;10.32;;
69392;SDS011;56582;44.624;20.378;2022-10-14T14:15:42;14.13;;;9.50;;
69392;SDS011;56582;44.624;20.378;2022-10-14T14:21:11;12.85;;;8.63;;
69392;SDS011;56582;44.624;20.378;2022-10-14T14:23:47;13.33;;;8.53;;
69392;SDS011;56582;44.624;20.378;2022-10-14T14:26:17;13.38;;;9.02;;
69392;SDS011;56582;44.624;20.378;2022-10-14T14:28:44;13.07;;;9.02;;
69392;SDS011;56582;44.624;20.378;2022-10-14T14:31:15;12.00;;;8.88;;
69392;SDS011;56582;44.624;20.378;2022-10-14T14:33:44;12.07;;;8.60;;
69392;SDS011;56582;44.624;20.378;2022-10-14T14:36:11;14.13;;;8.80;;
69392;SDS011;56582;44.624;20.378;2022-10-14T14:38:51;19.42;;;8.48;;
69392;SDS011;56582;44.624;20.378;2022-10-14T14:41:24;14.45;;;8.13;;
69392;SDS011;56582;44.624;20.378;2022-10-14T14:43:54;17.80;;;7.95;;
69392;SDS011;56582;44.624;20.378;2022-10-14T14:46:31;16.83;;;8.27;;
69392;SDS011;56582;44.624;20.378;2022-10-14T14:48:59;20.95;;;8.02;;
69392;SDS011;56582;44.624;20.378;2022-10-14T14:51:30;9.65;;;7.10;;
69392;SDS011;56582;44.624;20.378;2022-10-14T14:53:59;13.35;;;7.65;;
69392;SDS011;56582;44.624;20.378;2022-10-14T14:56:27;16.58;;;8.07;;
69392;SDS011;56582;44.624;20.378;2022-10-14T14:58:56;12.83;;;7.97;;
69392;SDS011;56582;44.624;20.378;2022-10-14T15:01:30;12.75;;;7.55;;
69392;SDS011;56582;44.624;20.378;2022-10-14T15:04:06;11.63;;;7.30;;
69392;SDS011;56582;44.624;20.378;2022-10-14T15:06:56;14.32;;;7.50;;
69392;SDS011;56582;44.624;20.378;2022-10-14T15:09:27;14.18;;;8.35;;
69392;SDS011;56582;44.624;20.378;2022-10-14T15:11:59;15.55;;;7.60;;
69392;SDS011;56582;44.624;20.378;2022-10-14T15:14:33;11.43;;;8.18;;
69392;SDS011;56582;44.624;20.378;2022-10-14T15:17:29;11.90;;;8.23;;
69392;SDS011;56582;44.624;20.378;2022-10-14T15:22:36;10.60;;;7.07;;
69392;SDS011;56582;44.624;20.378;2022-10-14T15:27:42;10.75;;;7.65;;
69392;SDS011;56582;44.624;20.378;2022-10-14T15:33:16;9.45;;;5.72;;
69392;SDS011;56582;44.624;20.378;2022-10-14T15:35:44;13.43;;;7.28;;
69392;SDS011;56582;44.624;20.378;2022-10-14T15:38:16;12.07;;;6.95;;
69392;SDS011;56582;44.624;20.378;2022-10-14T15:40:42;12.07;;;7.37;;
69392;SDS011;56582;44.624;20.378;2022-10-14T15:43:15;12.82;;;6.75;;
69392;SDS011;56582;44.624;20.378;2022-10-14T15:45:43;12.32;;;6.90;;
69392;SDS011;56582;44.624;20.378;2022-10-14T15:48:15;13.27;;;6.40;;
69392;SDS011;56582;44.624;20.378;2022-10-14T15:50:43;11.17;;;5.23;;
69392;SDS011;56582;44.624;20.378;2022-10-14T15:53:11;10.70;;;5.97;;
69392;SDS011;56582;44.624;20.378;2022-10-14T15:55:37;11.57;;;6.43;;
69392;SDS011;56582;44.624;20.378;2022-10-14T15:58:03;12.35;;;7.03;;
69392;SDS011;56582;44.624;20.378;2022-10-14T16:00:29;13.97;;;7.33;;
69392;SDS011;56582;44.624;20.378;2022-10-14T16:02:55;13.55;;;6.15;;
69392;SDS011;56582;44.624;20.378;2022-10-14T16:05:26;9.00;;;4.95;;
69392;SDS011;56582;44.624;20.378;2022-10-14T16:07:55;12.27;;;6.57;;
69392;SDS011;56582;44.624;20.378;2022-10-14T16:10:22;16.63;;;8.37;;
69392;SDS011;56582;44.624;20.378;2022-10-14T16:12:49;11.95;;;6.90;;
69392;SDS011;56582;44.624;20.378;2022-10-14T16:17:56;13.88;;;9.07;;
69392;SDS011;56582;44.624;20.378;2022-10-14T16:20:22;17.20;;;7.43;;
69392;SDS011;56582;44.624;20.378;2022-10-14T16:22:47;13.87;;;6.60;;
69392;SDS011;56582;44.624;20.378;2022-10-14T16:25:24;12.48;;;6.97;;
69392;SDS011;56582;44.624;20.378;2022-10-14T16:27:55;13.65;;;7.45;;
69392;SDS011;56582;44.624;20.378;2022-10-14T16:30:20;14.93;;;7.13;;
69392;SDS011;56582;44.624;20.378;2022-10-14T16:32:46;13.82;;;7.30;;
69392;SDS011;56582;44.624;20.378;2022-10-14T16:35:12;13.50;;;6.97;;
69392;SDS011;56582;44.624;20.378;2022-10-14T16:37:38;15.02;;;6.68;;
69392;SDS011;56582;44.624;20.378;2022-10-14T16:40:04;11.65;;;7.93;;
69392;SDS011;56582;44.624;20.378;2022-10-14T16:42:30;10.63;;;6.33;;
69392;SDS011;56582;44.624;20.378;2022-10-14T16:44:56;9.65;;;6.78;;
69392;SDS011;56582;44.624;20.378;2022-10-14T16:47:21;14.23;;;7.33;;
69392;SDS011;56582;44.624;20.378;2022-10-14T16:49:48;11.97;;;7.20;;
69392;SDS011;56582;44.624;20.378;2022-10-14T16:52:16;13.02;;;6.90;;
69392;SDS011;56582;44.624;20.378;2022-10-14T16:54:42;17.15;;;8.00;;
69392;SDS011;56582;44.624;20.378;2022-10-14T16:57:08;12.93;;;6.78;;
69392;SDS011;56582;44.624;20.378;2022-10-14T16:59:34;13.63;;;7.68;;
69392;SDS011;56582;44.624;20.378;2022-10-14T17:02:01;11.63;;;7.13;;
69392;SDS011;56582;44.624;20.378;2022-10-14T17:04:27;13.73;;;7.35;;
69392;SDS011;56582;44.624;20.378;2022-10-14T17:06:52;11.57;;;7.00;;
69392;SDS011;56582;44.624;20.378;2022-10-14T17:09:18;13.25;;;8.68;;
69392;SDS011;56582;44.624;20.378;2022-10-14T17:11:44;13.73;;;8.70;;
69392;SDS011;56582;44.624;20.378;2022-10-14T17:14:12;10.53;;;7.37;;
69392;SDS011;56582;44.624;20.378;2022-10-14T17:16:39;16.63;;;7.93;;